Time;durP1;ratioP1;P1;durP2;ratioP2;P2;SDS_P1;SDS_P2;PMS_P1;PMS_P2;Temp;Humidity;BMP_temperature;BMP_pressure;BME280_temperature;BME280_humidity;BME280_pressure;Samples;Min_cycle;Max_cycle;Signal;HPM_P1;HPM_P2
2021/04/16 00:02:21;;;;;;;;;;;;;;;;;;5059681;28;20022;-87
2021/04/16 00:04:47;;;;;;;;;;;;;;;;;;5076984;28;19920;-85
2021/04/16 00:07:12;;;;;;;;;;;;;;;;;;5060258;28;19912;-87
2021/04/16 00:09:39;;;;;;;;;;;;;;;;;;5060105;28;19935;-87
2021/04/16 00:12:04;;;;;;;;;;;;;;;;;;5076725;28;19920;-86
2021/04/16 00:14:31;;;;;;;;;;;;;;;;;;5057249;28;19921;-87
2021/04/16 00:16:56;;;;;;;;;;;;;;;;;;5057899;28;20385;-87
2021/04/16 00:19:23;;;;;;;;;;;;;;;;;;5076953;28;19912;-87
2021/04/16 00:21:50;;;;;;;;;;;;;;;;;;5059741;28;20032;-87
2021/04/16 00:24:19;;;;;;;;;;;;;;;;;;5058274;28;20285;-85
2021/04/16 00:26:46;;;;;;;;;;;;;;;;;;5059894;28;20014;-86
2021/04/16 00:29:12;;;;;;;;;;;;;;;;;;5074007;28;19919;-86
2021/04/16 00:31:53;;;;;;;;;;;;;;;;;;5059330;28;19920;-86
2021/04/16 00:34:19;;;;;;;;;;;;;;;;;;5075999;28;20001;-85
2021/04/16 00:36:46;;;;;;;;;;;;;;;;;;5076064;28;19912;-85
2021/04/16 00:39:12;;;;;;;;;;;;;;;;;;5081099;28;20381;-86
2021/04/16 00:41:40;;;;;;;;;;;;;;;;;;5059742;28;19958;-85
2021/04/16 00:44:08;;;;;;;;;;;;;;;;;;5076013;28;19912;-87
2021/04/16 00:46:36;;;;;;;;;;;;;;;;;;5057991;28;19955;-87
2021/04/16 00:49:02;;;;;;;;;;;;;;;;;;5057771;28;19919;-87
2021/04/16 00:51:32;;;;;;;;;;;;;;;;;;5075796;28;19912;-86
2021/04/16 00:53:58;;;;;;;;;;;;;;;;;;5075153;28;19969;-87
2021/04/16 00:56:24;;;;;;;;;;;;;;;;;;5059309;28;19913;-86
2021/04/16 00:58:50;;;;;;;;;;;;;;;;;;5059219;28;19912;-86
2021/04/16 01:01:15;;;;;;;;;;;;;;;;;;5074829;28;19927;-86
2021/04/16 01:03:41;;;;;;;;;;;;;;;;;;5075625;28;19920;-86
2021/04/16 01:06:07;;;;;;;;;;;;;;;;;;5075991;28;19918;-86
2021/04/16 01:08:33;;;;;;;;;;;;;;;;;;5059171;28;20006;-87
2021/04/16 01:11:01;;;;;;;;;;;;;;;;;;5058595;28;19920;-86
2021/04/16 01:13:28;;;;;;;;;;;;;;;;;;5068363;28;19912;-86
2021/04/16 01:15:59;;;;;;;;;;;;;;;;;;5057769;28;20006;-86
2021/04/16 01:18:26;;;;;;;;;;;;;;;;;;5075977;28;19916;-86
2021/04/16 01:20:53;;;;;;;;;;;;;;;;;;5074682;28;20282;-86
2021/04/16 01:23:19;;;;;;;;;;;;;;;;;;5058337;28;20015;-86
2021/04/16 01:25:45;;;;;;;;;;;;;;;;;;5075356;28;19923;-86
2021/04/16 01:28:12;;;;;;;;;;;;;;;;;;5065576;28;19927;-85
2021/04/16 01:30:51;;;;;;;;;;;;;;;;;;5058648;28;19912;-86
2021/04/16 01:33:17;;;;;;;;;;;;;;;;;;5058425;28;19920;-86
2021/04/16 01:35:43;;;;;;;;;;;;;;;;;;5074752;28;19912;-86
2021/04/16 01:38:09;;;;;;;;;;;;;;;;;;5058212;28;19920;-87
2021/04/16 01:40:35;;;;;;;;;;;;;;;;;;5074938;28;19938;-86
2021/04/16 01:43:22;;;;;;;;;;;;;;;;;;5057524;28;19920;-86
2021/04/16 01:45:48;;;;;;;;;;;;;;;;;;5074151;28;19912;-86
2021/04/16 01:48:14;;;;;;;;;;;;;;;;;;5074620;28;19921;-86
2021/04/16 01:50:40;;;;;;;;;;;;;;;;;;5074340;28;19923;-86
2021/04/16 01:53:07;;;;;;;;;;;;;;;;;;5055717;28;20425;-86
2021/04/16 01:55:32;;;;;;;;;;;;;;;;;;5074133;28;19956;-86
2021/04/16 01:57:57;;;;;;;;;;;;;;;;;;5074268;28;19923;-86
2021/04/16 02:00:26;;;;;;;;;;;;;;;;;;5074348;28;19912;-86
2021/04/16 02:02:52;;;;;;;;;;;;;;;;;;5074259;28;19973;-86
2021/04/16 02:05:17;;;;;;;;;;;;;;;;;;5057401;28;19912;-85
2021/04/16 02:07:43;;;;;;;;;;;;;;;;;;5057111;28;19913;-86
2021/04/16 02:10:08;;;;;;;;;;;;;;;;;;5074333;28;20046;-86
2021/04/16 02:12:35;;;;;;;;;;;;;;;;;;5057545;28;19923;-86
2021/04/16 02:15:00;;;;;;;;;;;;;;;;;;5057820;28;19995;-85
2021/04/16 02:17:26;;;;;;;;;;;;;;;;;;5055969;28;20007;-87
2021/04/16 02:19:52;;;;;;;;;;;;;;;;;;5056441;28;19913;-86
2021/04/16 02:22:19;;;;;;;;;;;;;;;;;;5055970;28;19948;-86
2021/04/16 02:24:45;;;;;;;;;;;;;;;;;;5074468;28;19916;-86
2021/04/16 02:27:12;;;;;;;;;;;;;;;;;;5074083;28;19920;-85
2021/04/16 02:29:39;;;;;;;;;;;;;;;;;;5057755;28;19919;-86
2021/04/16 02:32:04;;;;;;;;;;;;;;;;;;5074096;28;19924;-86
2021/04/16 02:34:32;;;;;;;;;;;;;;;;;;5057169;28;19919;-87
2021/04/16 02:36:59;;;;;;;;;;;;;;;;;;5074429;28;19912;-86
2021/04/16 02:39:25;;;;;;;;;;;;;;;;;;5057780;28;19916;-86
2021/04/16 02:41:52;;;;;;;;;;;;;;;;;;5073625;28;19920;-87
2021/04/16 02:44:17;;;;;;;;;;;;;;;;;;5073952;28;20003;-86
2021/04/16 02:46:42;;;;;;;;;;;;;;;;;;5057315;28;20349;-86
2021/04/16 02:49:08;;;;;;;;;;;;;;;;;;5057089;28;20127;-86
2021/04/16 02:51:34;;;;;;;;;;;;;;;;;;5074109;28;19924;-86
2021/04/16 02:53:59;;;;;;;;;;;;;;;;;;5074022;28;19920;-86
2021/04/16 02:56:26;;;;;;;;;;;;;;;;;;5076833;28;20003;-86
2021/04/16 02:58:52;;;;;;;;;;;;;;;;;;5073017;28;19962;-86
2021/04/16 03:01:18;;;;;;;;;;;;;;;;;;5061451;28;20266;-87
2021/04/16 03:03:44;;;;;;;;;;;;;;;;;;5077445;28;19923;-86
2021/04/16 03:06:09;;;;;;;;;;;;;;;;;;5078124;28;19920;-85
2021/04/16 03:08:34;;;;;;;;;;;;;;;;;;5059529;28;19913;-86
2021/04/16 03:11:01;;;;;;;;;;;;;;;;;;5061314;28;19931;-86
2021/04/16 03:13:27;;;;;;;;;;;;;;;;;;5060629;28;19959;-87
2021/04/16 03:15:53;;;;;;;;;;;;;;;;;;5061169;28;19912;-86
2021/04/16 03:18:19;;;;;;;;;;;;;;;;;;5077680;28;19927;-86
2021/04/16 03:20:45;;;;;;;;;;;;;;;;;;5078088;28;20308;-85
2021/04/16 03:23:11;;;;;;;;;;;;;;;;;;5060483;28;19927;-86
2021/04/16 03:25:36;;;;;;;;;;;;;;;;;;5060515;28;19995;-86
2021/04/16 03:28:03;;;;;;;;;;;;;;;;;;5060726;28;19916;-85
2021/04/16 03:30:30;;;;;;;;;;;;;;;;;;5060953;28;19967;-86
2021/04/16 03:32:57;;;;;;;;;;;;;;;;;;5075808;28;19939;-86
2021/04/16 03:35:22;;;;;;;;;;;;;;;;;;5076915;28;19919;-86
2021/04/16 03:37:49;;;;;;;;;;;;;;;;;;5077013;28;19916;-86
2021/04/16 03:40:16;;;;;;;;;;;;;;;;;;5077381;28;20423;-86
2021/04/16 03:42:42;;;;;;;;;;;;;;;;;;5077063;28;19912;-86
2021/04/16 03:45:07;;;;;;;;;;;;;;;;;;5077148;28;19935;-86
2021/04/16 03:47:33;;;;;;;;;;;;;;;;;;5060115;28;19912;-86
2021/04/16 03:49:58;;;;;;;;;;;;;;;;;;5077310;28;19919;-86
2021/04/16 03:52:24;;;;;;;;;;;;;;;;;;5076826;28;19931;-86
2021/04/16 03:54:49;;;;;;;;;;;;;;;;;;5060112;28;19916;-86
2021/04/16 03:57:16;;;;;;;;;;;;;;;;;;5060347;28;19912;-86
2021/04/16 03:59:41;;;;;;;;;;;;;;;;;;5064258;28;19912;-86
2021/04/16 04:02:06;;;;;;;;;;;;;;;;;;5059969;28;19927;-86
2021/04/16 04:04:31;;;;;;;;;;;;;;;;;;5059724;28;19919;-86
2021/04/16 04:06:58;;;;;;;;;;;;;;;;;;5075953;28;19919;-85
2021/04/16 04:09:23;;;;;;;;;;;;;;;;;;5077118;28;20003;-87
2021/04/16 04:11:49;;;;;;;;;;;;;;;;;;5076828;28;20015;-86
2021/04/16 04:14:16;;;;;;;;;;;;;;;;;;5059755;28;19969;-86
2021/04/16 04:16:48;;;;;;;;;;;;;;;;;;5076301;28;19919;-86
2021/04/16 04:19:14;;;;;;;;;;;;;;;;;;5076474;28;19927;-85
2021/04/16 04:21:39;;;;;;;;;;;;;;;;;;5076054;28;19912;-84
2021/04/16 04:24:04;;;;;;;;;;;;;;;;;;5076045;28;19912;-86
2021/04/16 04:26:31;;;;;;;;;;;;;;;;;;5058710;28;19920;-86
2021/04/16 04:28:56;;;;;;;;;;;;;;;;;;5082832;28;19920;-87
2021/04/16 04:31:21;;;;;;;;;;;;;;;;;;5059060;28;19920;-86
2021/04/16 04:33:48;;;;;;;;;;;;;;;;;;5076155;28;19966;-86
2021/04/16 04:36:16;;;;;;;;;;;;;;;;;;5076637;28;19912;-86
2021/04/16 04:38:42;;;;;;;;;;;;;;;;;;5075197;28;20380;-86
2021/04/16 04:41:09;;;;;;;;;;;;;;;;;;5076119;28;19919;-86
2021/04/16 04:43:34;;;;;;;;;;;;;;;;;;5076172;28;19916;-86
2021/04/16 04:46:00;;;;;;;;;;;;;;;;;;5057897;28;19912;-86
2021/04/16 04:48:30;;;;;;;;;;;;;;;;;;5055454;28;19947;-86
2021/04/16 04:50:57;;;;;;;;;;;;;;;;;;5076238;28;19912;-86
2021/04/16 04:53:23;;;;;;;;;;;;;;;;;;5059074;28;19923;-85
2021/04/16 04:55:50;;;;;;;;;;;;;;;;;;5075774;28;19959;-86
2021/04/16 04:58:15;;;;;;;;;;;;;;;;;;5090907;28;19924;-85
2021/04/16 05:00:42;;;;;;;;;;;;;;;;;;5059144;28;20010;-87
2021/04/16 05:03:07;;;;;;;;;;;;;;;;;;5058944;28;19920;-86
2021/04/16 05:05:33;;;;;;;;;;;;;;;;;;5058677;28;19919;-86
2021/04/16 05:07:59;;;;;;;;;;;;;;;;;;5075666;28;19976;-87
2021/04/16 05:10:27;;;;;;;;;;;;;;;;;;5075599;28;19912;-86
2021/04/16 05:12:53;;;;;;;;;;;;;;;;;;5056720;28;19912;-86
2021/04/16 05:15:21;;;;;;;;;;;;;;;;;;5075990;28;19923;-87
2021/04/16 05:17:47;;;;;;;;;;;;;;;;;;5074689;28;19912;-86
2021/04/16 05:20:14;;;;;;;;;;;;;;;;;;5058714;28;19918;-87
2021/04/16 05:22:40;;;;;;;;;;;;;;;;;;5082915;28;20740;-84
2021/04/16 05:25:05;;;;;;;;;;;;;;;;;;5056416;28;20003;-84
2021/04/16 05:27:31;;;;;;;;;;;;;;;;;;5072401;28;19916;-86
2021/04/16 05:29:58;;;;;;;;;;;;;;;;;;5042799;28;19916;-87
2021/04/16 05:32:25;;;;;;;;;;;;;;;;;;5057916;28;19927;-88
2021/04/16 05:34:51;;;;;;;;;;;;;;;;;;5057983;28;19995;-86
2021/04/16 05:37:16;;;;;;;;;;;;;;;;;;5074001;28;19915;-85
2021/04/16 05:39:43;;;;;;;;;;;;;;;;;;5074629;28;19919;-87
2021/04/16 05:42:09;;;;;;;;;;;;;;;;;;5057370;28;19928;-85
2021/04/16 05:44:37;;;;;;;;;;;;;;;;;;5058146;28;19956;-86
2021/04/16 05:47:03;;;;;;;;;;;;;;;;;;5059497;28;19919;-87
2021/04/16 05:49:28;;;;;;;;;;;;;;;;;;5060937;28;19924;-85
2021/04/16 05:51:53;;;;;;;;;;;;;;;;;;5075077;28;19916;-88
2021/04/16 05:54:21;;;;;;;;;;;;;;;;;;5058483;28;19924;-88
2021/04/16 05:56:46;;;;;;;;;;;;;;;;;;5058104;28;19912;-86
2021/04/16 05:59:13;;;;;;;;;;;;;;;;;;5075616;28;20006;-89
2021/04/16 06:01:39;;;;;;;;;;;;;;;;;;5074632;28;20484;-84
2021/04/16 06:04:04;;;;;;;;;;;;;;;;;;5073128;28;19974;-85
2021/04/16 06:06:30;;;;;;;;;;;;;;;;;;5056771;28;19912;-84
2021/04/16 06:08:56;;;;;;;;;;;;;;;;;;5073219;28;19943;-84
2021/04/16 06:11:22;;;;;;;;;;;;;;;;;;5056883;28;19951;-88
2021/04/16 06:13:49;;;;;;;;;;;;;;;;;;5075869;28;19917;-89
2021/04/16 06:16:15;;;;;;;;;;;;;;;;;;5056554;28;20019;-86
2021/04/16 06:18:40;;;;;;;;;;;;;;;;;;5075126;28;19923;-87
2021/04/16 06:21:08;;;;;;;;;;;;;;;;;;5075627;28;19912;-90
2021/04/16 06:23:34;;;;;;;;;;;;;;;;;;5058272;28;19912;-87
2021/04/16 06:26:00;;;;;;;;;;;;;;;;;;5074670;28;19916;-88
2021/04/16 06:28:27;;;;;;;;;;;;;;;;;;5067660;28;19912;-88
2021/04/16 06:30:54;;;;;;;;;;;;;;;;;;5060587;28;19912;-87
2021/04/16 06:33:27;;;;;;;;;;;;;;;;;;5056334;28;19920;-88
2021/04/16 06:35:55;;;;;;;;;;;;;;;;;;5052824;28;19912;-88
2021/04/16 06:38:21;;;;;;;;;;;;;;;;;;5057066;28;19958;-88
2021/04/16 06:40:50;;;;;;;;;;;;;;;;;;5055408;28;19912;-88
2021/04/16 06:43:19;;;;;;;;;;;;;;;;;;5058588;28;19912;-89
2021/04/16 06:45:45;;;;;;;;;;;;;;;;;;5072273;28;19966;-88
2021/04/16 06:48:10;;;;;;;;;;;;;;;;;;5057662;28;19924;-88
2021/04/16 06:50:37;;;;;;;;;;;;;;;;;;5056177;28;19924;-88
2021/04/16 06:53:10;;;;;;;;;;;;;;;;;;5056863;28;19916;-88
2021/04/16 06:55:40;;;;;;;;;;;;;;;;;;5073947;28;19948;-87
2021/04/16 06:58:08;;;;;;;;;;;;;;;;;;5074475;28;19912;-88
2021/04/16 07:00:52;;;;;;;;;;;;;;;;;;5057297;28;20003;-87
2021/04/16 07:03:22;;;;;;;;;;;;;;;;;;5088876;28;19927;-89
2021/04/16 07:05:51;;;;;;;;;;;;;;;;;;5074370;28;19912;-88
2021/04/16 07:08:22;;;;;;;;;;;;;;;;;;5056035;28;19932;-88
2021/04/16 07:10:50;;;;;;;;;;;;;;;;;;5073884;28;20362;-89
2021/04/16 07:13:19;;;;;;;;;;;;;;;;;;5057247;28;19927;-88
2021/04/16 07:15:46;;;;;;;;;;;;;;;;;;5054779;28;19920;-88
2021/04/16 07:18:14;;;;;;;;;;;;;;;;;;5056504;28;19920;-87
2021/04/16 07:20:39;;;;;;;;;;;;;;;;;;5057463;28;19923;-86
2021/04/16 07:23:06;;;;;;;;;;;;;;;;;;5056721;28;19920;-87
2021/04/16 07:25:36;;;;;;;;;;;;;;;;;;5063450;28;19920;-84
2021/04/16 07:28:05;;;;;;;;;;;;;;;;;;5073218;28;19966;-85
2021/04/16 07:30:47;;;;;;;;;;;;;;;;;;5072066;28;19999;-85
2021/04/16 07:33:22;;;;;;;;;;;;;;;;;;5055521;28;19923;-86
2021/04/16 07:35:47;;;;;;;;;;;;;;;;;;5073077;28;19916;-85
2021/04/16 07:38:34;;;;;;;;;;;;;;;;;;5056104;28;19912;-85
2021/04/16 07:41:16;;;;;;;;;;;;;;;;;;5072943;28;19922;-86
2021/04/16 07:43:46;;;;;;;;;;;;;;;;;;5076214;28;19919;-85
2021/04/16 07:46:22;;;;;;;;;;;;;;;;;;5059807;28;19919;-86
2021/04/16 07:48:48;;;;;;;;;;;;;;;;;;5059772;28;19912;-86
2021/04/16 07:51:15;;;;;;;;;;;;;;;;;;5060008;28;19912;-87
2021/04/16 07:53:43;;;;;;;;;;;;;;;;;;5058794;28;19959;-86
2021/04/16 07:56:18;;;;;;;;;;;;;;;;;;5076697;28;19966;-85
2021/04/16 07:58:50;;;;;;;;;;;;;;;;;;5059601;28;19912;-86
2021/04/16 08:01:24;;;;;;;;;;;;;;;;;;5059378;28;19946;-86
2021/04/16 08:03:52;;;;;;;;;;;;;;;;;;5076033;28;19916;-86
2021/04/16 08:06:23;;;;;;;;;;;;;;;;;;5059700;28;19927;-85
2021/04/16 08:08:49;;;;;;;;;;;;;;;;;;5076287;28;19924;-85
2021/04/16 08:11:19;;;;;;;;;;;;;;;;;;5076002;28;19923;-86
2021/04/16 08:13:45;;;;;;;;;;;;;;;;;;5080222;28;19916;-86
2021/04/16 08:16:12;;;;;;;;;;;;;;;;;;5074839;28;19912;-85
2021/04/16 08:18:39;;;;;;;;;;;;;;;;;;5059514;28;19951;-85
2021/04/16 08:21:05;;;;;;;;;;;;;;;;;;5056755;28;19961;-85
2021/04/16 08:23:35;;;;;;;;;;;;;;;;;;5058745;28;19973;-86
2021/04/16 08:26:01;;;;;;;;;;;;;;;;;;5059217;28;20150;-85
2021/04/16 08:28:29;;;;;;;;;;;;;;;;;;5059013;28;19972;-85
2021/04/16 08:31:07;;;;;;;;;;;;;;;;;;5057814;28;19924;-86
2021/04/16 08:33:32;;;;;;;;;;;;;;;;;;5074903;28;19912;-84
2021/04/16 08:36:05;;;;;;;;;;;;;;;;;;5058136;28;20381;-84
2021/04/16 08:38:31;;;;;;;;;;;;;;;;;;5074786;28;20623;-85
2021/04/16 08:40:59;;;;;;;;;;;;;;;;;;5075254;28;19966;-85
2021/04/16 08:43:30;;;;;;;;;;;;;;;;;;5058390;28;19916;-84
2021/04/16 08:45:55;;;;;;;;;;;;;;;;;;5058426;28;19927;-84
2021/04/16 08:48:25;;;;;;;;;;;;;;;;;;5065619;28;19912;-86
2021/04/16 08:50:54;;;;;;;;;;;;;;;;;;5076255;28;19912;-87
2021/04/16 08:53:20;;;;;;;;;;;;;;;;;;5057900;28;19924;-88
2021/04/16 08:55:46;;;;;;;;;;;;;;;;;;5058082;28;20058;-87
2021/04/16 08:58:27;;;;;;;;;;;;;;;;;;5076422;28;19957;-85
2021/04/16 09:00:56;;;;;;;;;;;;;;;;;;5073807;28;19919;-80
2021/04/16 09:03:23;;;;;;;;;;;;;;;;;;5073346;28;20010;-80
2021/04/16 09:05:56;;;;;;;;;;;;;;;;;;5055733;28;19916;-80
2021/04/16 09:08:23;;;;;;;;;;;;;;;;;;5056943;28;19939;-79
2021/04/16 09:10:53;;;;;;;;;;;;;;;;;;5074196;28;19916;-80
2021/04/16 09:13:33;;;;;;;;;;;;;;;;;;5073099;28;19913;-81
2021/04/16 09:16:14;;;;;;;;;;;;;;;;;;5057701;28;19998;-80
2021/04/16 09:18:39;;;;;;;;;;;;;;;;;;5091458;28;19973;-79
2021/04/16 09:21:05;;;;;;;;;;;;;;;;;;5073775;28;19912;-79
2021/04/16 09:23:30;;;;;;;;;;;;;;;;;;5090704;28;20019;-79
2021/04/16 09:25:55;;;;;;;;;;;;;;;;;;5090632;28;20293;-79
2021/04/16 09:28:23;;;;;;;;;;;;;;;;;;5073665;28;19920;-79
2021/04/16 09:30:49;;;;;;;;;;;;;;;;;;5090197;28;19920;-79
2021/04/16 09:33:17;;;;;;;;;;;;;;;;;;5065333;28;19927;-80
2021/04/16 09:35:55;;;;;;;;;;;;;;;;;;5073230;28;19912;-81
2021/04/16 09:38:23;;;;;;;;;;;;;;;;;;5091198;28;19920;-80
2021/04/16 09:41:07;;;;;;;;;;;;;;;;;;5073050;28;19916;-81
2021/04/16 09:43:32;;;;;;;;;;;;;;;;;;5090113;28;19912;-81
2021/04/16 09:45:58;;;;;;;;;;;;;;;;;;5073599;28;20313;-81
2021/04/16 09:48:42;;;;;;;;;;;;;;;;;;5073549;28;19962;-81
2021/04/16 09:51:07;;;;;;;;;;;;;;;;;;5090742;28;19912;-81
2021/04/16 09:53:34;;;;;;;;;;;;;;;;;;5072520;28;21242;-82
2021/04/16 09:56:00;;;;;;;;;;;;;;;;;;5049093;28;19959;-82
2021/04/16 10:00:57;;;;;;;;;;;;;;;;;;5091115;28;19937;-81
2021/04/16 10:03:41;;;;;;;;;;;;;;;;;;5056177;28;20385;-80
2021/04/16 10:06:15;;;;;;;;;;;;;;;;;;5073193;28;19927;-81
2021/04/16 10:08:41;;;;;;;;;;;;;;;;;;5090265;28;19923;-81
2021/04/16 10:11:06;;;;;;;;;;;;;;;;;;5072935;28;19912;-81
2021/04/16 10:13:32;;;;;;;;;;;;;;;;;;5056462;28;19912;-81
2021/04/16 10:15:58;;;;;;;;;;;;;;;;;;5072578;28;19919;-81
2021/04/16 10:18:35;;;;;;;;;;;;;;;;;;5056483;28;19912;-81
2021/04/16 10:21:03;;;;;;;;;;;;;;;;;;5048054;28;19916;-81
2021/04/16 10:23:29;;;;;;;;;;;;;;;;;;5072597;28;20361;-80
2021/04/16 12:38:59;;;;;;;;;;;;;;;;;;5059702;28;19924;-82
2021/04/16 12:41:39;;;;;;;;;;;;;;;;;;5074564;28;19912;-82
2021/04/16 12:44:05;;;;;;;;;;;;;;;;;;5057194;28;19922;-81
2021/04/16 12:46:32;;;;;;;;;;;;;;;;;;5074849;28;19912;-81
2021/04/16 12:48:57;;;;;;;;;;;;;;;;;;5058057;28;19969;-82
2021/04/16 12:51:22;;;;;;;;;;;;;;;;;;5074810;28;19912;-81
2021/04/16 12:53:47;;;;;;;;;;;;;;;;;;5057782;28;19959;-81
2021/04/16 12:56:14;;;;;;;;;;;;;;;;;;5074593;28;19912;-82
2021/04/16 12:58:40;;;;;;;;;;;;;;;;;;5074333;28;19932;-81
2021/04/16 13:01:06;;;;;;;;;;;;;;;;;;5075166;28;19920;-81
2021/04/16 13:03:36;;;;;;;;;;;;;;;;;;5074999;28;19916;-82
2021/04/16 13:06:01;;;;;;;;;;;;;;;;;;5074224;28;20259;-82
2021/04/16 13:08:26;;;;;;;;;;;;;;;;;;5074351;28;19919;-82
2021/04/16 13:10:52;;;;;;;;;;;;;;;;;;5074357;28;19945;-82
2021/04/16 13:13:17;;;;;;;;;;;;;;;;;;5074595;28;19962;-81
2021/04/16 13:15:42;;;;;;;;;;;;;;;;;;5074220;28;19912;-81
2021/04/16 13:18:31;;;;;;;;;;;;;;;;;;5057385;28;20331;-82
2021/04/16 13:20:56;;;;;;;;;;;;;;;;;;5086485;28;19912;-82
2021/04/16 13:23:22;;;;;;;;;;;;;;;;;;5057134;28;19916;-82
2021/04/16 13:25:47;;;;;;;;;;;;;;;;;;5074083;28;19919;-82
2021/04/16 13:28:12;;;;;;;;;;;;;;;;;;5074035;28;19919;-83
2021/04/16 13:30:37;;;;;;;;;;;;;;;;;;5057588;28;19985;-82
2021/04/16 13:33:04;;;;;;;;;;;;;;;;;;5073894;28;19923;-82
2021/04/16 13:35:29;;;;;;;;;;;;;;;;;;5074050;28;19920;-86
2021/04/16 13:37:54;;;;;;;;;;;;;;;;;;5092318;28;19916;-82
2021/04/16 13:40:20;;;;;;;;;;;;;;;;;;5072939;28;19912;-85
2021/04/16 13:42:45;;;;;;;;;;;;;;;;;;5056631;28;20473;-86
2021/04/16 13:45:10;;;;;;;;;;;;;;;;;;5074171;28;19920;-87
2021/04/16 13:47:36;;;;;;;;;;;;;;;;;;5073546;28;20377;-88
2021/04/16 13:50:03;;;;;;;;;;;;;;;;;;5057934;28;20057;-86
2021/04/16 13:52:28;;;;;;;;;;;;;;;;;;5051481;28;19959;-85
2021/04/16 13:54:53;;;;;;;;;;;;;;;;;;5073171;28;20450;-82
2021/04/16 13:57:18;;;;;;;;;;;;;;;;;;5073685;28;19923;-83
2021/04/16 13:59:44;;;;;;;;;;;;;;;;;;5073490;28;19927;-82
2021/04/16 14:02:21;;;;;;;;;;;;;;;;;;5048304;28;20313;-82
2021/04/16 14:04:47;;;;;;;;;;;;;;;;;;5056691;28;19916;-83
2021/04/16 14:07:13;;;;;;;;;;;;;;;;;;5073459;28;19919;-82
2021/04/16 14:09:38;;;;;;;;;;;;;;;;;;5072864;28;19912;-83
2021/04/16 14:12:07;;;;;;;;;;;;;;;;;;5073144;28;19954;-82
2021/04/16 14:14:32;;;;;;;;;;;;;;;;;;5053184;28;19916;-82
2021/04/16 14:17:14;;;;;;;;;;;;;;;;;;5054374;28;19916;-81
2021/04/16 14:19:52;;;;;;;;;;;;;;;;;;5073003;28;20429;-81
2021/04/16 14:22:27;;;;;;;;;;;;;;;;;;5056305;28;19920;-82
2021/04/16 14:24:53;;;;;;;;;;;;;;;;;;5056045;28;19919;-82
2021/04/16 14:27:18;;;;;;;;;;;;;;;;;;5073699;28;19912;-83
2021/04/16 14:29:43;;;;;;;;;;;;;;;;;;5072762;28;19919;-83
2021/04/16 14:32:09;;;;;;;;;;;;;;;;;;5055495;28;20453;-83
2021/04/16 14:34:34;;;;;;;;;;;;;;;;;;5056064;28;19927;-83
2021/04/16 14:37:00;;;;;;;;;;;;;;;;;;5072803;28;20014;-82
2021/04/16 14:39:27;;;;;;;;;;;;;;;;;;5055596;28;19968;-83
2021/04/16 14:41:54;;;;;;;;;;;;;;;;;;5072759;28;19920;-82
2021/04/16 14:44:20;;;;;;;;;;;;;;;;;;5056469;28;20083;-84
2021/04/16 14:46:45;;;;;;;;;;;;;;;;;;5073212;28;20105;-83
2021/04/16 14:49:11;;;;;;;;;;;;;;;;;;5072250;28;19916;-83
2021/04/16 14:51:37;;;;;;;;;;;;;;;;;;5077942;28;19912;-84
2021/04/16 14:54:04;;;;;;;;;;;;;;;;;;5079174;28;20392;-84
2021/04/16 14:56:29;;;;;;;;;;;;;;;;;;5079303;28;19923;-84
2021/04/16 14:58:59;;;;;;;;;;;;;;;;;;5055401;28;19916;-84
2021/04/16 15:01:24;;;;;;;;;;;;;;;;;;5062592;28;20289;-85
2021/04/16 15:03:50;;;;;;;;;;;;;;;;;;5079259;28;19923;-83
2021/04/16 15:06:19;;;;;;;;;;;;;;;;;;5078996;28;19985;-82
2021/04/16 15:08:48;;;;;;;;;;;;;;;;;;5061993;28;19919;-82
2021/04/16 15:11:14;;;;;;;;;;;;;;;;;;5062145;28;20277;-83
2021/04/16 15:13:39;;;;;;;;;;;;;;;;;;5079520;28;19916;-82
2021/04/16 15:16:05;;;;;;;;;;;;;;;;;;5079136;28;19920;-82
2021/04/16 15:18:31;;;;;;;;;;;;;;;;;;5061645;28;19912;-82
2021/04/16 15:20:57;;;;;;;;;;;;;;;;;;5079204;28;20264;-83
2021/04/16 15:23:22;;;;;;;;;;;;;;;;;;5061629;28;20254;-83
2021/04/16 15:25:49;;;;;;;;;;;;;;;;;;5078468;28;20003;-84
2021/04/16 15:28:17;;;;;;;;;;;;;;;;;;5079359;28;19998;-85
2021/04/16 15:30:42;;;;;;;;;;;;;;;;;;5062232;28;19912;-83
2021/04/16 15:33:15;;;;;;;;;;;;;;;;;;5079231;28;20262;-85
2021/04/16 15:46:48;;;;;;;;;;;;;;;;;;5064963;28;19913;-84
2021/04/16 15:49:13;;;;;;;;;;;;;;;;;;5080405;28;19916;-83
2021/04/16 15:51:38;;;;;;;;;;;;;;;;;;5061831;28;19926;-83
2021/04/16 15:54:04;;;;;;;;;;;;;;;;;;5078746;28;20293;-84
2021/04/16 15:56:39;;;;;;;;;;;;;;;;;;5062133;28;19970;-85
2021/04/16 15:59:12;;;;;;;;;;;;;;;;;;5062805;28;20445;-84
2021/04/16 16:01:37;;;;;;;;;;;;;;;;;;5044374;28;19992;-85
2021/04/16 16:04:02;;;;;;;;;;;;;;;;;;5058121;28;19920;-84
2021/04/16 16:06:28;;;;;;;;;;;;;;;;;;5075346;28;19911;-83
2021/04/16 16:08:57;;;;;;;;;;;;;;;;;;5075885;28;19962;-83
2021/04/16 16:11:24;;;;;;;;;;;;;;;;;;5075558;28;19912;-86
2021/04/16 16:13:50;;;;;;;;;;;;;;;;;;5041992;28;19927;-83
2021/04/16 16:16:16;;;;;;;;;;;;;;;;;;5075642;28;19912;-84
2021/04/16 16:18:41;;;;;;;;;;;;;;;;;;5074978;28;19920;-84
2021/04/16 16:21:08;;;;;;;;;;;;;;;;;;5075531;28;20400;-81
2021/04/16 16:23:34;;;;;;;;;;;;;;;;;;5075926;28;19912;-82
2021/04/16 16:25:59;;;;;;;;;;;;;;;;;;5075430;28;19935;-81
2021/04/16 16:28:25;;;;;;;;;;;;;;;;;;5058561;28;19927;-83
2021/04/16 16:30:50;;;;;;;;;;;;;;;;;;5075700;28;19943;-83
2021/04/16 16:33:16;;;;;;;;;;;;;;;;;;5058812;28;19924;-83
2021/04/16 16:35:42;;;;;;;;;;;;;;;;;;5040034;28;19984;-83
2021/04/16 16:38:07;;;;;;;;;;;;;;;;;;5058302;28;20076;-83
2021/04/16 16:40:36;;;;;;;;;;;;;;;;;;5058401;28;19912;-82
2021/04/16 16:43:05;;;;;;;;;;;;;;;;;;5058419;28;20382;-83
2021/04/16 16:45:34;;;;;;;;;;;;;;;;;;5075388;28;19916;-84
2021/04/16 16:47:59;;;;;;;;;;;;;;;;;;5075129;28;19927;-82
2021/04/16 16:50:26;;;;;;;;;;;;;;;;;;5074672;28;19916;-82
2021/04/16 16:52:51;;;;;;;;;;;;;;;;;;5057335;28;20332;-82
2021/04/16 16:55:16;;;;;;;;;;;;;;;;;;5057493;28;19916;-82
2021/04/16 16:57:42;;;;;;;;;;;;;;;;;;5058228;28;20007;-81
2021/04/16 17:00:11;;;;;;;;;;;;;;;;;;5075055;28;19943;-85
2021/04/16 17:02:38;;;;;;;;;;;;;;;;;;5073796;28;19979;-82
2021/04/16 17:05:04;;;;;;;;;;;;;;;;;;5057745;28;20007;-81
2021/04/16 17:07:29;;;;;;;;;;;;;;;;;;5074692;28;19920;-84
2021/04/16 17:09:54;;;;;;;;;;;;;;;;;;5057821;28;20285;-83
2021/04/16 17:12:20;;;;;;;;;;;;;;;;;;5074361;28;19952;-82
2021/04/16 17:14:45;;;;;;;;;;;;;;;;;;5090834;28;19916;-83
2021/04/16 17:17:11;;;;;;;;;;;;;;;;;;5074665;28;19956;-82
2021/04/16 17:19:36;;;;;;;;;;;;;;;;;;5073984;28;20380;-82
2021/04/16 17:22:02;;;;;;;;;;;;;;;;;;5074331;28;19919;-85
2021/04/16 17:24:27;;;;;;;;;;;;;;;;;;5074448;28;19912;-85
2021/04/16 17:26:54;;;;;;;;;;;;;;;;;;5074642;28;20003;-86
2021/04/16 17:29:23;;;;;;;;;;;;;;;;;;5057908;28;20019;-85
2021/04/16 17:31:48;;;;;;;;;;;;;;;;;;5056770;28;19923;-85
2021/04/16 17:34:13;;;;;;;;;;;;;;;;;;5073881;28;19916;-84
2021/04/16 17:36:40;;;;;;;;;;;;;;;;;;5057241;28;19920;-85
2021/04/16 17:39:06;;;;;;;;;;;;;;;;;;5074520;28;20354;-86
2021/04/16 17:41:32;;;;;;;;;;;;;;;;;;5073592;28;19927;-87
2021/04/16 17:43:58;;;;;;;;;;;;;;;;;;5057870;28;19919;-86
2021/04/16 17:46:24;;;;;;;;;;;;;;;;;;5056844;28;20010;-86
2021/04/16 17:48:49;;;;;;;;;;;;;;;;;;5057362;28;20042;-85
2021/04/16 17:51:21;;;;;;;;;;;;;;;;;;5057111;28;19917;-86
2021/04/16 17:53:47;;;;;;;;;;;;;;;;;;5057778;28;20430;-83
2021/04/16 17:56:12;;;;;;;;;;;;;;;;;;5056995;28;20042;-85
2021/04/16 17:58:38;;;;;;;;;;;;;;;;;;5073511;28;19916;-84
2021/04/16 18:01:04;;;;;;;;;;;;;;;;;;5074538;28;19919;-90
2021/04/16 18:03:29;;;;;;;;;;;;;;;;;;5057968;28;20297;-88
2021/04/16 18:05:55;;;;;;;;;;;;;;;;;;5074619;28;19979;-88
2021/04/16 18:08:20;;;;;;;;;;;;;;;;;;5073763;28;19924;-88
2021/04/16 18:10:47;;;;;;;;;;;;;;;;;;5091458;28;20365;-92
2021/04/16 18:13:12;;;;;;;;;;;;;;;;;;5074436;28;19918;-91
2021/04/16 18:15:38;;;;;;;;;;;;;;;;;;5057842;28;20367;-91
2021/04/16 18:18:03;;;;;;;;;;;;;;;;;;5057135;28;19912;-88
2021/04/16 18:20:31;;;;;;;;;;;;;;;;;;5074716;28;20011;-89
2021/04/16 18:22:58;;;;;;;;;;;;;;;;;;5073928;28;20394;-83
2021/04/16 18:25:28;;;;;;;;;;;;;;;;;;5055819;28;20401;-79
2021/04/16 18:27:53;;;;;;;;;;;;;;;;;;5072907;28;19987;-78
2021/04/16 18:30:29;;;;;;;;;;;;;;;;;;5073239;28;20007;-79
2021/04/16 18:32:54;;;;;;;;;;;;;;;;;;5073099;28;19957;-79
2021/04/16 18:35:19;;;;;;;;;;;;;;;;;;5072929;28;19928;-78
2021/04/16 18:37:45;;;;;;;;;;;;;;;;;;5073315;28;19917;-78
2021/04/16 18:40:22;;;;;;;;;;;;;;;;;;5073029;28;19919;-78
2021/04/16 18:42:48;;;;;;;;;;;;;;;;;;5072502;28;20384;-78
2021/04/16 18:45:13;;;;;;;;;;;;;;;;;;5072766;28;19912;-78
2021/04/16 18:47:39;;;;;;;;;;;;;;;;;;5073279;28;20292;-77
2021/04/16 18:50:05;;;;;;;;;;;;;;;;;;5089892;28;20716;-78
2021/04/16 18:52:34;;;;;;;;;;;;;;;;;;5072382;28;20267;-78
2021/04/16 18:55:00;;;;;;;;;;;;;;;;;;5072684;28;19916;-76
2021/04/16 18:57:25;;;;;;;;;;;;;;;;;;5072753;28;19968;-78
2021/04/16 18:59:51;;;;;;;;;;;;;;;;;;5072769;28;19998;-77
2021/04/16 19:02:16;;;;;;;;;;;;;;;;;;5072173;28;20384;-77
2021/04/16 19:04:41;;;;;;;;;;;;;;;;;;5072712;28;19931;-78
2021/04/16 19:07:07;;;;;;;;;;;;;;;;;;5072390;28;19912;-78
2021/04/16 19:09:34;;;;;;;;;;;;;;;;;;5072846;28;19912;-78
2021/04/16 19:11:59;;;;;;;;;;;;;;;;;;5073038;28;19922;-79
2021/04/16 19:14:25;;;;;;;;;;;;;;;;;;5088993;28;19920;-79